Terminal Aerodrome Forecast
Issued by NWS

Home | Current Version | Previous Version | Graphics & Text | Print | Product List | Glossary On
Versions: 1 2 3 4 5 6 7 8 9 10 11 12 13 14
000
FTUS43 KBIS 180500
TAFJMS
TAF
KJMS 180539Z 1806/1906 11009KT P6SM BKN080
     FM181000 12011KT P6SM SCT080 BKN110
     FM181300 12018G26KT P6SM SCT070 BKN120
     FM181600 12023G33KT P6SM BKN120
     FM181800 13027G36KT P6SM SCT040 BKN120
     FM190100 12021G28KT P6SM VCSH SCT070 OVC120=

USA.gov is the U.S. government's official web portal to all federal, state and local government web resources and services.